sensor_id;sensor_type;location;lat;lon;timestamp;pressure;altitude;pressure_sealevel;temperature;humidity
16190;BME280;41754;51.498;7.540;2023-02-18T00:01:15;100941.47;;;11.95;82.12
16190;BME280;41754;51.498;7.540;2023-02-18T00:03:48;100936.94;;;11.85;82.83
16190;BME280;41754;51.498;7.540;2023-02-18T00:06:19;100938.50;;;11.26;83.81
16190;BME280;41754;51.498;7.540;2023-02-18T00:08:47;100929.97;;;11.74;82.84
16190;BME280;41754;51.498;7.540;2023-02-18T00:11:17;100944.38;;;11.01;86.78
16190;BME280;41754;51.498;7.540;2023-02-18T00:13:49;100956.38;;;10.25;89.92
16190;BME280;41754;51.498;7.540;2023-02-18T00:16:19;100960.88;;;10.39;91.80
16190;BME280;41754;51.498;7.540;2023-02-18T00:18:47;100958.47;;;10.57;91.77
16190;BME280;41754;51.498;7.540;2023-02-18T00:21:15;100953.25;;;10.07;92.41
16190;BME280;41754;51.498;7.540;2023-02-18T00:23:43;100948.22;;;11.37;86.74
16190;BME280;41754;51.498;7.540;2023-02-18T00:26:13;100949.78;;;10.68;89.65
16190;BME280;41754;51.498;7.540;2023-02-18T00:28:42;100958.41;;;10.62;91.27
16190;BME280;41754;51.498;7.540;2023-02-18T00:31:12;100957.84;;;10.41;92.19
16190;BME280;41754;51.498;7.540;2023-02-18T00:33:42;100963.25;;;10.89;88.70
16190;BME280;41754;51.498;7.540;2023-02-18T00:36:12;100943.19;;;11.77;84.97
16190;BME280;41754;51.498;7.540;2023-02-18T00:38:43;100929.56;;;11.67;82.87
16190;BME280;41754;51.498;7.540;2023-02-18T00:41:11;100921.22;;;11.99;82.10
16190;BME280;41754;51.498;7.540;2023-02-18T00:43:39;100913.38;;;11.93;80.43
16190;BME280;41754;51.498;7.540;2023-02-18T00:46:07;100909.56;;;11.75;81.32
16190;BME280;41754;51.498;7.540;2023-02-18T00:48:36;100900.41;;;12.21;79.07
16190;BME280;41754;51.498;7.540;2023-02-18T00:51:06;100886.97;;;12.55;77.60
16190;BME280;41754;51.498;7.540;2023-02-18T00:53:34;100894.50;;;12.14;76.63
16190;BME280;41754;51.498;7.540;2023-02-18T00:56:03;100885.06;;;12.42;77.13
16190;BME280;41754;51.498;7.540;2023-02-18T00:58:31;100884.84;;;12.25;77.38
16190;BME280;41754;51.498;7.540;2023-02-18T01:00:59;100889.97;;;12.32;76.70
16190;BME280;41754;51.498;7.540;2023-02-18T01:03:27;100892.91;;;12.49;76.24
16190;BME280;41754;51.498;7.540;2023-02-18T01:05:55;100882.09;;;12.52;77.11
16190;BME280;41754;51.498;7.540;2023-02-18T01:08:28;100886.59;;;12.21;76.17
16190;BME280;41754;51.498;7.540;2023-02-18T01:10:57;100874.22;;;12.32;76.00
16190;BME280;41754;51.498;7.540;2023-02-18T01:13:25;100869.34;;;12.29;76.90
16190;BME280;41754;51.498;7.540;2023-02-18T01:15:54;100883.41;;;12.55;75.75
16190;BME280;41754;51.498;7.540;2023-02-18T01:18:23;100886.09;;;12.19;77.10
16190;BME280;41754;51.498;7.540;2023-02-18T01:20:51;100881.69;;;12.45;76.69
16190;BME280;41754;51.498;7.540;2023-02-18T01:23:19;100879.31;;;12.52;76.07
16190;BME280;41754;51.498;7.540;2023-02-18T01:25:49;100891.50;;;12.24;77.48
16190;BME280;41754;51.498;7.540;2023-02-18T01:28:17;100882.69;;;12.49;77.40
16190;BME280;41754;51.498;7.540;2023-02-18T01:30:46;100883.53;;;11.95;76.75
16190;BME280;41754;51.498;7.540;2023-02-18T01:33:17;100885.69;;;11.98;79.21
16190;BME280;41754;51.498;7.540;2023-02-18T01:35:45;100881.50;;;12.14;79.28
16190;BME280;41754;51.498;7.540;2023-02-18T01:38:13;100873.25;;;12.14;78.41
16190;BME280;41754;51.498;7.540;2023-02-18T01:40:48;100882.41;;;11.96;79.42
16190;BME280;41754;51.498;7.540;2023-02-18T01:43:19;100876.59;;;11.97;79.60
16190;BME280;41754;51.498;7.540;2023-02-18T01:45:58;100868.22;;;12.30;78.02
16190;BME280;41754;51.498;7.540;2023-02-18T01:48:30;100866.66;;;12.51;76.97
16190;BME280;41754;51.498;7.540;2023-02-18T01:51:02;100851.78;;;11.97;79.35
16190;BME280;41754;51.498;7.540;2023-02-18T01:53:36;100858.28;;;12.43;78.46
16190;BME280;41754;51.498;7.540;2023-02-18T01:56:09;100865.13;;;12.45;78.51
16190;BME280;41754;51.498;7.540;2023-02-18T01:58:39;100863.59;;;12.39;77.26
16190;BME280;41754;51.498;7.540;2023-02-18T02:01:08;100862.94;;;12.56;78.00
16190;BME280;41754;51.498;7.540;2023-02-18T02:03:36;100862.59;;;12.21;78.45
16190;BME280;41754;51.498;7.540;2023-02-18T02:06:09;100864.94;;;12.01;79.65
16190;BME280;41754;51.498;7.540;2023-02-18T02:08:39;100853.78;;;12.33;77.31
16190;BME280;41754;51.498;7.540;2023-02-18T02:11:16;100868.53;;;12.15;78.28
16190;BME280;41754;51.498;7.540;2023-02-18T02:13:58;100855.91;;;12.64;76.87
16190;BME280;41754;51.498;7.540;2023-02-18T02:16:37;100859.31;;;12.33;76.45
16190;BME280;41754;51.498;7.540;2023-02-18T02:19:35;100862.19;;;12.28;77.21
16190;BME280;41754;51.498;7.540;2023-02-18T02:22:33;100861.06;;;11.74;79.13
16190;BME280;41754;51.498;7.540;2023-02-18T02:25:18;100864.25;;;11.81;81.08
16190;BME280;41754;51.498;7.540;2023-02-18T02:28:12;100865.09;;;11.49;81.77
16190;BME280;41754;51.498;7.540;2023-02-18T02:31:02;100860.41;;;11.50;82.03
16190;BME280;41754;51.498;7.540;2023-02-18T02:36:42;100846.06;;;11.34;83.58
16190;BME280;41754;51.498;7.540;2023-02-18T02:39:19;100831.53;;;11.61;82.33
16190;BME280;41754;51.498;7.540;2023-02-18T02:41:54;100828.91;;;11.83;81.72
16190;BME280;41754;51.498;7.540;2023-02-18T02:44:29;100827.56;;;11.67;80.77
16190;BME280;41754;51.498;7.540;2023-02-18T02:47:08;100822.53;;;12.24;78.97
16190;BME280;41754;51.498;7.540;2023-02-18T02:49:43;100814.16;;;12.29;76.11
16190;BME280;41754;51.498;7.540;2023-02-18T02:52:18;100813.41;;;12.37;75.61
16190;BME280;41754;51.498;7.540;2023-02-18T02:54:48;100811.63;;;12.19;76.03
16190;BME280;41754;51.498;7.540;2023-02-18T02:57:43;100811.34;;;11.93;77.20
16190;BME280;41754;51.498;7.540;2023-02-18T03:00:17;100813.25;;;12.20;77.01
16190;BME280;41754;51.498;7.540;2023-02-18T03:02:57;100805.59;;;11.62;78.74
16190;BME280;41754;51.498;7.540;2023-02-18T03:05:38;100803.16;;;11.74;78.74
16190;BME280;41754;51.498;7.540;2023-02-18T03:08:27;100797.84;;;12.05;76.91
16190;BME280;41754;51.498;7.540;2023-02-18T03:11:02;100791.81;;;12.03;78.04
16190;BME280;41754;51.498;7.540;2023-02-18T03:13:44;100789.91;;;11.76;78.72
16190;BME280;41754;51.498;7.540;2023-02-18T03:16:30;100778.66;;;11.73;78.64
16190;BME280;41754;51.498;7.540;2023-02-18T03:19:07;100776.78;;;11.40;80.59
16190;BME280;41754;51.498;7.540;2023-02-18T03:21:40;100774.72;;;11.32;81.27
16190;BME280;41754;51.498;7.540;2023-02-18T03:24:15;100766.19;;;11.48;80.20
16190;BME280;41754;51.498;7.540;2023-02-18T03:26:47;100769.47;;;11.50;79.54
16190;BME280;41754;51.498;7.540;2023-02-18T03:29:18;100758.81;;;11.29;80.44
16190;BME280;41754;51.498;7.540;2023-02-18T03:31:59;100759.22;;;11.36;79.71
16190;BME280;41754;51.498;7.540;2023-02-18T03:34:30;100752.34;;;11.53;80.27
16190;BME280;41754;51.498;7.540;2023-02-18T03:36:59;100753.19;;;11.34;80.93
16190;BME280;41754;51.498;7.540;2023-02-18T03:39:31;100745.84;;;11.30;82.63
16190;BME280;41754;51.498;7.540;2023-02-18T03:42:03;100733.59;;;11.36;81.98
16190;BME280;41754;51.498;7.540;2023-02-18T03:44:31;100744.22;;;11.29;81.51
16190;BME280;41754;51.498;7.540;2023-02-18T03:46:59;100742.75;;;11.64;81.85
16190;BME280;41754;51.498;7.540;2023-02-18T03:49:26;100738.91;;;11.32;81.63
16190;BME280;41754;51.498;7.540;2023-02-18T03:51:54;100739.25;;;11.58;81.74
16190;BME280;41754;51.498;7.540;2023-02-18T03:54:22;100733.88;;;11.07;82.71
16190;BME280;41754;51.498;7.540;2023-02-18T03:56:51;100733.53;;;11.27;84.39
16190;BME280;41754;51.498;7.540;2023-02-18T03:59:19;100740.00;;;11.64;82.28
16190;BME280;41754;51.498;7.540;2023-02-18T04:01:47;100725.47;;;11.45;82.77
16190;BME280;41754;51.498;7.540;2023-02-18T04:04:15;100728.19;;;11.17;83.93
16190;BME280;41754;51.498;7.540;2023-02-18T04:06:43;100724.53;;;11.35;84.10
16190;BME280;41754;51.498;7.540;2023-02-18T04:09:10;100727.78;;;11.37;83.10
16190;BME280;41754;51.498;7.540;2023-02-18T04:11:39;100721.06;;;11.30;83.22
16190;BME280;41754;51.498;7.540;2023-02-18T04:14:09;100719.19;;;10.98;84.51
16190;BME280;41754;51.498;7.540;2023-02-18T04:16:39;100715.34;;;11.26;84.66
16190;BME280;41754;51.498;7.540;2023-02-18T04:19:07;100717.34;;;10.93;84.94
16190;BME280;41754;51.498;7.540;2023-02-18T04:21:35;100709.00;;;11.26;85.09
16190;BME280;41754;51.498;7.540;2023-02-18T04:24:03;100713.69;;;11.25;85.19
16190;BME280;41754;51.498;7.540;2023-02-18T04:26:31;100703.72;;;11.02;85.59
16190;BME280;41754;51.498;7.540;2023-02-18T04:28:59;100707.69;;;11.23;84.97
16190;BME280;41754;51.498;7.540;2023-02-18T04:31:28;100715.56;;;11.16;85.81
16190;BME280;41754;51.498;7.540;2023-02-18T04:33:56;100705.53;;;10.93;86.72
16190;BME280;41754;51.498;7.540;2023-02-18T04:36:24;100689.47;;;11.55;84.39
16190;BME280;41754;51.498;7.540;2023-02-18T04:38:52;100694.91;;;11.14;85.60
16190;BME280;41754;51.498;7.540;2023-02-18T04:41:19;100688.31;;;11.28;85.58
16190;BME280;41754;51.498;7.540;2023-02-18T04:43:47;100687.19;;;11.02;86.60
16190;BME280;41754;51.498;7.540;2023-02-18T04:46:15;100678.31;;;11.19;87.81
16190;BME280;41754;51.498;7.540;2023-02-18T04:48:44;100673.63;;;11.05;86.81
16190;BME280;41754;51.498;7.540;2023-02-18T04:51:12;100668.03;;;11.52;85.14
16190;BME280;41754;51.498;7.540;2023-02-18T04:53:40;100674.75;;;11.18;86.07
16190;BME280;41754;51.498;7.540;2023-02-18T04:56:08;100667.19;;;11.24;86.07
16190;BME280;41754;51.498;7.540;2023-02-18T04:58:36;100666.47;;;11.18;84.87
16190;BME280;41754;51.498;7.540;2023-02-18T05:01:04;100650.06;;;11.40;83.22
16190;BME280;41754;51.498;7.540;2023-02-18T05:03:32;100649.22;;;10.99;85.35
16190;BME280;41754;51.498;7.540;2023-02-18T05:06:01;100656.09;;;11.15;84.69
16190;BME280;41754;51.498;7.540;2023-02-18T05:08:30;100639.84;;;11.27;85.13
16190;BME280;41754;51.498;7.540;2023-02-18T05:10:57;100647.69;;;11.20;85.51
16190;BME280;41754;51.498;7.540;2023-02-18T05:13:25;100635.75;;;11.66;85.10
16190;BME280;41754;51.498;7.540;2023-02-18T05:15:53;100650.56;;;11.43;84.57
16190;BME280;41754;51.498;7.540;2023-02-18T05:18:21;100653.72;;;11.22;85.03
16190;BME280;41754;51.498;7.540;2023-02-18T05:20:49;100641.56;;;11.64;84.66
16190;BME280;41754;51.498;7.540;2023-02-18T05:23:18;100641.06;;;11.21;84.27
16190;BME280;41754;51.498;7.540;2023-02-18T05:25:46;100641.28;;;11.11;86.13
16190;BME280;41754;51.498;7.540;2023-02-18T05:28:14;100640.38;;;11.29;85.76
16190;BME280;41754;51.498;7.540;2023-02-18T05:30:42;100622.88;;;11.61;84.54
16190;BME280;41754;51.498;7.540;2023-02-18T05:33:10;100616.66;;;11.42;84.35
16190;BME280;41754;51.498;7.540;2023-02-18T05:35:38;100617.59;;;11.65;83.46
16190;BME280;41754;51.498;7.540;2023-02-18T05:38:06;100629.44;;;11.24;84.78
16190;BME280;41754;51.498;7.540;2023-02-18T05:40:35;100617.56;;;11.37;85.20
16190;BME280;41754;51.498;7.540;2023-02-18T05:43:03;100615.78;;;11.19;85.21
16190;BME280;41754;51.498;7.540;2023-02-18T05:45:31;100611.28;;;11.09;86.07
16190;BME280;41754;51.498;7.540;2023-02-18T05:47:58;100594.13;;;11.54;82.02
16190;BME280;41754;51.498;7.540;2023-02-18T05:50:26;100600.91;;;11.06;86.86
16190;BME280;41754;51.498;7.540;2023-02-18T05:52:54;100586.16;;;11.25;86.04
16190;BME280;41754;51.498;7.540;2023-02-18T05:55:22;100586.09;;;11.16;86.87
16190;BME280;41754;51.498;7.540;2023-02-18T05:57:52;100575.38;;;11.01;86.60
16190;BME280;41754;51.498;7.540;2023-02-18T06:00:20;100579.84;;;11.24;86.41
16190;BME280;41754;51.498;7.540;2023-02-18T06:02:48;100571.75;;;10.92;86.50
16190;BME280;41754;51.498;7.540;2023-02-18T06:05:15;100577.72;;;11.07;87.41
16190;BME280;41754;51.498;7.540;2023-02-18T06:07:43;100573.25;;;10.98;87.45
16190;BME280;41754;51.498;7.540;2023-02-18T06:10:11;100568.53;;;11.12;86.71
16190;BME280;41754;51.498;7.540;2023-02-18T06:12:39;100593.75;;;10.92;87.28
16190;BME280;41754;51.498;7.540;2023-02-18T06:15:08;100567.84;;;10.93;87.67
16190;BME280;41754;51.498;7.540;2023-02-18T06:17:37;100582.50;;;10.47;89.91
16190;BME280;41754;51.498;7.540;2023-02-18T06:20:05;100577.44;;;10.81;88.99
16190;BME280;41754;51.498;7.540;2023-02-18T06:22:34;100557.25;;;10.72;89.28
16190;BME280;41754;51.498;7.540;2023-02-18T06:25:02;100562.25;;;11.61;88.30
16190;BME280;41754;51.498;7.540;2023-02-18T06:27:29;100552.25;;;11.02;85.20
16190;BME280;41754;51.498;7.540;2023-02-18T06:29:57;100541.91;;;11.21;85.98
16190;BME280;41754;51.498;7.540;2023-02-18T06:32:26;100559.09;;;10.91;86.48
16190;BME280;41754;51.498;7.540;2023-02-18T06:34:54;100573.16;;;11.03;87.09
16190;BME280;41754;51.498;7.540;2023-02-18T06:37:22;100557.34;;;10.67;89.73
16190;BME280;41754;51.498;7.540;2023-02-18T06:39:50;100570.91;;;10.91;88.35
16190;BME280;41754;51.498;7.540;2023-02-18T06:42:17;100554.47;;;11.00;87.23
16190;BME280;41754;51.498;7.540;2023-02-18T06:44:45;100560.09;;;10.95;88.51
16190;BME280;41754;51.498;7.540;2023-02-18T06:47:13;100562.53;;;11.10;88.55
16190;BME280;41754;51.498;7.540;2023-02-18T06:49:42;100563.16;;;11.07;86.08
16190;BME280;41754;51.498;7.540;2023-02-18T06:52:10;100567.44;;;10.86;87.47
16190;BME280;41754;51.498;7.540;2023-02-18T06:54:38;100569.78;;;10.65;88.49
16190;BME280;41754;51.498;7.540;2023-02-18T06:57:09;100565.81;;;10.57;89.04
16190;BME280;41754;51.498;7.540;2023-02-18T06:59:36;100558.47;;;10.80;89.00
16190;BME280;41754;51.498;7.540;2023-02-18T07:02:04;100558.06;;;10.87;87.32
16190;BME280;41754;51.498;7.540;2023-02-18T07:04:32;100558.56;;;10.89;88.03
16190;BME280;41754;51.498;7.540;2023-02-18T07:07:01;100544.50;;;11.04;87.89
16190;BME280;41754;51.498;7.540;2023-02-18T07:09:29;100555.81;;;10.89;87.87
16190;BME280;41754;51.498;7.540;2023-02-18T07:11:57;100552.25;;;10.74;88.93
16190;BME280;41754;51.498;7.540;2023-02-18T07:14:25;100554.09;;;10.93;88.35
16190;BME280;41754;51.498;7.540;2023-02-18T07:16:53;100555.00;;;10.74;89.00
16190;BME280;41754;51.498;7.540;2023-02-18T07:19:21;100563.34;;;10.42;90.33
16190;BME280;41754;51.498;7.540;2023-02-18T07:21:49;100554.00;;;10.70;89.00
16190;BME280;41754;51.498;7.540;2023-02-18T07:24:18;100560.94;;;10.68;89.73
16190;BME280;41754;51.498;7.540;2023-02-18T07:26:46;100556.94;;;10.88;89.09
16190;BME280;41754;51.498;7.540;2023-02-18T07:29:14;100570.50;;;10.57;89.27
16190;BME280;41754;51.498;7.540;2023-02-18T07:31:42;100558.38;;;10.85;88.58
16190;BME280;41754;51.498;7.540;2023-02-18T07:34:10;100573.94;;;10.62;90.94
16190;BME280;41754;51.498;7.540;2023-02-18T07:36:37;100571.41;;;10.52;89.88
16190;BME280;41754;51.498;7.540;2023-02-18T07:39:05;100585.88;;;10.71;88.88
16190;BME280;41754;51.498;7.540;2023-02-18T07:41:34;100570.31;;;10.80;87.41
16190;BME280;41754;51.498;7.540;2023-02-18T07:44:06;100575.69;;;10.99;87.34
16190;BME280;41754;51.498;7.540;2023-02-18T07:46:34;100578.66;;;10.75;88.16
16190;BME280;41754;51.498;7.540;2023-02-18T07:49:06;100583.22;;;10.52;89.11
16190;BME280;41754;51.498;7.540;2023-02-18T07:51:34;100581.31;;;10.94;88.12
16190;BME280;41754;51.498;7.540;2023-02-18T07:54:03;100582.22;;;10.62;88.18
16190;BME280;41754;51.498;7.540;2023-02-18T07:56:31;100585.19;;;10.52;90.89
16190;BME280;41754;51.498;7.540;2023-02-18T07:59:00;100594.97;;;10.72;88.69
16190;BME280;41754;51.498;7.540;2023-02-18T08:01:28;100592.84;;;10.82;87.46
16190;BME280;41754;51.498;7.540;2023-02-18T08:03:56;100599.75;;;10.66;86.94
16190;BME280;41754;51.498;7.540;2023-02-18T08:06:28;100599.66;;;10.71;87.77
16190;BME280;41754;51.498;7.540;2023-02-18T08:08:57;100584.75;;;10.59;88.02
16190;BME280;41754;51.498;7.540;2023-02-18T08:11:25;100599.34;;;10.59;86.97
16190;BME280;41754;51.498;7.540;2023-02-18T08:13:53;100595.38;;;10.93;84.91
16190;BME280;41754;51.498;7.540;2023-02-18T08:16:22;100594.13;;;10.58;84.44
16190;BME280;41754;51.498;7.540;2023-02-18T08:18:51;100595.16;;;10.75;84.02
16190;BME280;41754;51.498;7.540;2023-02-18T08:21:20;100601.09;;;10.69;83.90
16190;BME280;41754;51.498;7.540;2023-02-18T08:23:49;100588.94;;;11.11;81.97
16190;BME280;41754;51.498;7.540;2023-02-18T08:26:18;100614.03;;;10.82;83.16
16190;BME280;41754;51.498;7.540;2023-02-18T08:28:47;100594.97;;;11.13;82.76
16190;BME280;41754;51.498;7.540;2023-02-18T08:31:16;100605.78;;;10.96;82.96
16190;BME280;41754;51.498;7.540;2023-02-18T08:33:46;100604.47;;;10.93;81.58
16190;BME280;41754;51.498;7.540;2023-02-18T08:36:14;100595.78;;;11.14;81.69
16190;BME280;41754;51.498;7.540;2023-02-18T08:38:42;100598.03;;;10.98;80.94
16190;BME280;41754;51.498;7.540;2023-02-18T08:41:10;100592.50;;;11.39;80.25
16190;BME280;41754;51.498;7.540;2023-02-18T08:43:40;100601.06;;;11.37;78.68
16190;BME280;41754;51.498;7.540;2023-02-18T08:46:08;100584.63;;;11.32;77.93
16190;BME280;41754;51.498;7.540;2023-02-18T08:48:42;100579.00;;;11.37;77.96
16190;BME280;41754;51.498;7.540;2023-02-18T08:51:13;100580.00;;;11.91;75.17
16190;BME280;41754;51.498;7.540;2023-02-18T08:53:42;100555.16;;;11.33;76.71
16190;BME280;41754;51.498;7.540;2023-02-18T08:56:10;100586.16;;;11.38;75.70
16190;BME280;41754;51.498;7.540;2023-02-18T08:58:39;100571.50;;;11.29;77.22
16190;BME280;41754;51.498;7.540;2023-02-18T09:01:08;100574.06;;;10.98;79.46
16190;BME280;41754;51.498;7.540;2023-02-18T09:03:37;100572.13;;;10.99;78.04
16190;BME280;41754;51.498;7.540;2023-02-18T09:06:06;100581.28;;;11.22;78.32
16190;BME280;41754;51.498;7.540;2023-02-18T09:08:35;100568.03;;;11.10;78.41
16190;BME280;41754;51.498;7.540;2023-02-18T09:11:03;100564.59;;;10.91;78.63
16190;BME280;41754;51.498;7.540;2023-02-18T09:13:32;100561.94;;;10.86;78.67
16190;BME280;41754;51.498;7.540;2023-02-18T09:16:02;100570.09;;;10.91;77.32
16190;BME280;41754;51.498;7.540;2023-02-18T09:18:31;100563.69;;;10.81;77.05
16190;BME280;41754;51.498;7.540;2023-02-18T09:21:01;100574.16;;;11.07;76.20
16190;BME280;41754;51.498;7.540;2023-02-18T09:23:31;100542.47;;;10.96;76.19
16190;BME280;41754;51.498;7.540;2023-02-18T09:26:03;100560.00;;;10.59;75.86
16190;BME280;41754;51.498;7.540;2023-02-18T09:28:31;100572.94;;;10.58;75.98
16190;BME280;41754;51.498;7.540;2023-02-18T09:31:03;100583.91;;;10.31;76.00
16190;BME280;41754;51.498;7.540;2023-02-18T09:33:34;100588.63;;;10.44;75.58
16190;BME280;41754;51.498;7.540;2023-02-18T09:36:02;100577.31;;;10.59;74.79
16190;BME280;41754;51.498;7.540;2023-02-18T09:38:31;100569.56;;;10.61;75.39
16190;BME280;41754;51.498;7.540;2023-02-18T09:41:03;100591.84;;;10.32;76.33
16190;BME280;41754;51.498;7.540;2023-02-18T09:43:34;100570.47;;;10.43;75.18
16190;BME280;41754;51.498;7.540;2023-02-18T09:46:04;100570.50;;;10.70;74.21
16190;BME280;41754;51.498;7.540;2023-02-18T09:48:36;100578.66;;;10.75;74.06
16190;BME280;41754;51.498;7.540;2023-02-18T09:51:04;100560.44;;;10.19;73.85
16190;BME280;41754;51.498;7.540;2023-02-18T09:53:32;100565.16;;;10.33;74.85
16190;BME280;41754;51.498;7.540;2023-02-18T09:56:02;100573.47;;;9.95;77.74
16190;BME280;41754;51.498;7.540;2023-02-18T09:58:31;100549.16;;;10.35;74.19
16190;BME280;41754;51.498;7.540;2023-02-18T10:01:04;100551.50;;;10.28;75.75
16190;BME280;41754;51.498;7.540;2023-02-18T10:03:33;100559.00;;;10.22;75.23
16190;BME280;41754;51.498;7.540;2023-02-18T10:06:05;100535.22;;;14.52;56.33
16190;BME280;41754;51.498;7.540;2023-02-18T10:08:35;100554.03;;;14.20;56.48
16190;BME280;41754;51.498;7.540;2023-02-18T10:11:10;100535.22;;;13.53;57.83
16190;BME280;41754;51.498;7.540;2023-02-18T10:13:40;100549.69;;;14.02;56.22
16190;BME280;41754;51.498;7.540;2023-02-18T10:16:08;100551.38;;;14.41;56.60
16190;BME280;41754;51.498;7.540;2023-02-18T10:18:43;100547.91;;;13.80;57.91
16190;BME280;41754;51.498;7.540;2023-02-18T10:21:16;100530.94;;;14.63;55.97
16190;BME280;41754;51.498;7.540;2023-02-18T10:23:51;100537.66;;;15.21;54.54
16190;BME280;41754;51.498;7.540;2023-02-18T10:26:21;100537.22;;;14.34;55.63
16190;BME280;41754;51.498;7.540;2023-02-18T10:28:49;100537.34;;;14.46;55.92
16190;BME280;41754;51.498;7.540;2023-02-18T10:31:22;100543.66;;;14.64;55.78
16190;BME280;41754;51.498;7.540;2023-02-18T10:33:58;100549.84;;;14.14;58.00
16190;BME280;41754;51.498;7.540;2023-02-18T10:36:32;100559.75;;;13.98;58.36
16190;BME280;41754;51.498;7.540;2023-02-18T10:41:56;100550.84;;;14.01;58.78
16190;BME280;41754;51.498;7.540;2023-02-18T10:44:33;100550.97;;;13.53;60.52
16190;BME280;41754;51.498;7.540;2023-02-18T10:47:15;100556.22;;;13.89;57.80
16190;BME280;41754;51.498;7.540;2023-02-18T10:49:56;100556.78;;;15.14;56.20
16190;BME280;41754;51.498;7.540;2023-02-18T10:52:28;100551.34;;;14.97;55.37
16190;BME280;41754;51.498;7.540;2023-02-18T10:55:01;100564.91;;;14.43;55.94
16190;BME280;41754;51.498;7.540;2023-02-18T10:57:32;100558.78;;;14.75;55.56
16190;BME280;41754;51.498;7.540;2023-02-18T11:00:10;100548.97;;;14.22;57.37
16190;BME280;41754;51.498;7.540;2023-02-18T11:02:42;100564.00;;;14.04;58.34
16190;BME280;41754;51.498;7.540;2023-02-18T11:05:19;100564.47;;;14.06;60.37
16190;BME280;41754;51.498;7.540;2023-02-18T11:07:50;100561.16;;;14.39;59.17
16190;BME280;41754;51.498;7.540;2023-02-18T11:10:24;100574.91;;;13.66;58.93
16190;BME280;41754;51.498;7.540;2023-02-18T11:12:57;100578.50;;;14.65;58.04
16190;BME280;41754;51.498;7.540;2023-02-18T11:15:27;100565.97;;;14.76;57.87
16190;BME280;41754;51.498;7.540;2023-02-18T11:17:57;100567.28;;;15.29;56.54
16190;BME280;41754;51.498;7.540;2023-02-18T11:20:39;100574.06;;;14.81;56.78
16190;BME280;41754;51.498;7.540;2023-02-18T11:23:18;100566.81;;;15.27;54.99
16190;BME280;41754;51.498;7.540;2023-02-18T11:25:56;100562.16;;;14.89;56.82
16190;BME280;41754;51.498;7.540;2023-02-18T11:28:30;100570.53;;;14.64;57.51
16190;BME280;41754;51.498;7.540;2023-02-18T11:31:01;100556.22;;;14.53;57.81
16190;BME280;41754;51.498;7.540;2023-02-18T11:33:33;100568.25;;;14.74;58.19
16190;BME280;41754;51.498;7.540;2023-02-18T11:36:04;100563.06;;;15.02;57.75
16190;BME280;41754;51.498;7.540;2023-02-18T11:38:43;100568.72;;;13.95;58.92
16190;BME280;41754;51.498;7.540;2023-02-18T11:41:14;100559.44;;;14.72;58.50
16190;BME280;41754;51.498;7.540;2023-02-18T11:43:48;100550.16;;;15.06;57.97
16190;BME280;41754;51.498;7.540;2023-02-18T11:46:18;100554.28;;;15.21;56.76
16190;BME280;41754;51.498;7.540;2023-02-18T11:48:46;100563.19;;;14.76;58.21
16190;BME280;41754;51.498;7.540;2023-02-18T11:51:17;100553.03;;;15.60;55.42
16190;BME280;41754;51.498;7.540;2023-02-18T11:53:54;100555.41;;;14.99;58.25
16190;BME280;41754;51.498;7.540;2023-02-18T11:56:27;100554.13;;;14.50;57.97
16190;BME280;41754;51.498;7.540;2023-02-18T11:58:57;100565.81;;;14.64;58.08
16190;BME280;41754;51.498;7.540;2023-02-18T12:01:37;100569.44;;;14.94;57.40
16190;BME280;41754;51.498;7.540;2023-02-18T12:04:11;100561.88;;;14.65;57.33
16190;BME280;41754;51.498;7.540;2023-02-18T12:06:45;100559.47;;;14.55;57.82
16190;BME280;41754;51.498;7.540;2023-02-18T12:09:21;100566.56;;;14.82;58.18
16190;BME280;41754;51.498;7.540;2023-02-18T12:11:52;100552.31;;;15.01;57.98
16190;BME280;41754;51.498;7.540;2023-02-18T12:14:25;100566.13;;;15.30;56.50
16190;BME280;41754;51.498;7.540;2023-02-18T12:17:10;100555.22;;;14.75;57.23
16190;BME280;41754;51.498;7.540;2023-02-18T12:20:18;100552.84;;;14.85;59.04
16190;BME280;41754;51.498;7.540;2023-02-18T12:22:56;100551.50;;;15.51;56.83
16190;BME280;41754;51.498;7.540;2023-02-18T12:25:36;100558.06;;;15.88;55.62
16190;BME280;41754;51.498;7.540;2023-02-18T12:28:27;100551.22;;;15.43;56.27
16190;BME280;41754;51.498;7.540;2023-02-18T12:31:20;100563.00;;;15.11;56.00
16190;BME280;41754;51.498;7.540;2023-02-18T12:34:02;100559.78;;;14.62;56.86
16190;BME280;41754;51.498;7.540;2023-02-18T12:36:45;100555.47;;;15.83;55.45
16190;BME280;41754;51.498;7.540;2023-02-18T12:39:28;100562.28;;;14.93;56.76
16190;BME280;41754;51.498;7.540;2023-02-18T12:42:15;100563.59;;;15.46;56.55
16190;BME280;41754;51.498;7.540;2023-02-18T12:45:03;100563.09;;;15.23;56.46
16190;BME280;41754;51.498;7.540;2023-02-18T12:47:48;100568.22;;;15.63;55.55
16190;BME280;41754;51.498;7.540;2023-02-18T12:50:37;100562.38;;;16.63;54.74
16190;BME280;41754;51.498;7.540;2023-02-18T12:53:33;100563.63;;;15.67;55.11
16190;BME280;41754;51.498;7.540;2023-02-18T12:59:04;100565.84;;;16.73;56.48
16190;BME280;41754;51.498;7.540;2023-02-18T13:01:44;100577.09;;;15.47;54.86
16190;BME280;41754;51.498;7.540;2023-02-18T13:04:43;100568.19;;;16.04;54.98
16190;BME280;41754;51.498;7.540;2023-02-18T13:07:38;100571.19;;;15.99;54.51
16190;BME280;41754;51.498;7.540;2023-02-18T13:13:15;100552.06;;;15.35;55.72
16190;BME280;41754;51.498;7.540;2023-02-18T13:15:47;100565.88;;;15.23;55.33
16190;BME280;41754;51.498;7.540;2023-02-18T13:18:22;100563.78;;;14.82;56.81
16190;BME280;41754;51.498;7.540;2023-02-18T13:20:54;100563.66;;;16.00;55.09
16190;BME280;41754;51.498;7.540;2023-02-18T13:23:25;100559.50;;;15.73;55.17
16190;BME280;41754;51.498;7.540;2023-02-18T13:25:57;100555.19;;;15.96;55.47